Time;durP1;ratioP1;P1;durP2;ratioP2;P2;SDS_P1;SDS_P2;PMS_P1;PMS_P2;Temp;Humidity;BMP_temperature;BMP_pressure;BME280_temperature;BME280_humidity;BME280_pressure;Samples;Min_cycle;Max_cycle;Signal;HPM_P1;HPM_P2
2023/04/27 00:00:22;;;;;;;2.53;1.00;;;21.40;99.90;;;;;;4962203;28;20627;-88
2023/04/27 00:02:55;;;;;;;2.33;0.83;;;21.50;99.90;;;;;;4970765;28;20298;-88
2023/04/27 00:05:26;;;;;;;2.40;1.00;;;21.70;99.90;;;;;;4973186;28;20207;-88
2023/04/27 00:07:57;;;;;;;1.30;0.80;;;21.90;99.90;;;;;;4971575;28;20266;-88
2023/04/27 00:10:29;;;;;;;1.87;1.37;;;22.20;99.90;;;;;;4959942;28;20216;-87
2023/04/27 00:13:00;;;;;;;3.13;1.27;;;22.20;99.90;;;;;;4954679;28;20266;-89
2023/04/27 00:15:31;;;;;;;2.90;0.83;;;22.30;99.90;;;;;;4954639;28;20207;-89
2023/04/27 00:18:04;;;;;;;1.33;0.70;;;22.20;99.90;;;;;;4963699;28;20246;-89
2023/04/27 00:20:35;;;;;;;2.47;1.00;;;21.70;99.90;;;;;;4977299;28;20220;-90
2023/04/27 00:23:06;;;;;;;2.93;1.37;;;21.70;99.90;;;;;;4972161;28;20207;-90
2023/04/27 00:25:37;;;;;;;2.17;0.90;;;21.60;99.90;;;;;;4971751;28;20203;-90
2023/04/27 00:28:08;;;;;;;2.33;0.90;;;21.60;99.90;;;;;;4962830;28;20286;-89
2023/04/27 00:30:39;;;;;;;3.37;1.23;;;21.60;99.90;;;;;;4972167;28;20218;-88
2023/04/27 00:33:12;;;;;;;2.20;1.03;;;21.40;99.90;;;;;;4972712;28;20203;-88
2023/04/27 00:35:43;;;;;;;3.00;1.07;;;21.30;99.90;;;;;;4972765;28;20257;-88
2023/04/27 00:38:14;;;;;;;2.17;0.90;;;21.10;99.90;;;;;;4972182;28;20207;-87
2023/04/27 00:40:45;;;;;;;1.33;0.80;;;21.10;99.90;;;;;;4965057;28;20568;-89
2023/04/27 00:43:16;;;;;;;1.37;0.80;;;20.90;99.90;;;;;;4953717;29;20207;-89
2023/04/27 00:45:47;;;;;;;2.37;0.77;;;20.80;99.90;;;;;;4961251;28;20223;-89
2023/04/27 00:48:21;;;;;;;0.83;0.60;;;20.60;99.90;;;;;;4978828;28;20286;-90
2023/04/27 00:50:53;;;;;;;1.83;0.90;;;20.40;99.90;;;;;;4992379;28;20202;-89
2023/04/27 00:53:24;;;;;;;1.67;0.70;;;20.40;99.90;;;;;;4980407;28;20227;-89
2023/04/27 00:55:57;;;;;;;2.60;0.73;;;20.40;99.90;;;;;;4975294;28;20277;-89
2023/04/27 00:58:28;;;;;;;2.70;1.07;;;20.40;99.90;;;;;;4967359;28;20217;-88
2023/04/27 01:01:00;;;;;;;2.47;0.77;;;20.10;99.90;;;;;;4971107;28;20278;-89
2023/04/27 01:03:34;;;;;;;2.07;1.00;;;20.00;99.90;;;;;;4967345;28;20214;-89
2023/04/27 01:06:06;;;;;;;1.83;0.90;;;20.00;99.90;;;;;;4973067;28;20234;-89
2023/04/27 01:08:38;;;;;;;2.80;1.20;;;19.80;99.90;;;;;;4967002;28;20241;-90
2023/04/27 01:11:09;;;;;;;5.63;1.07;;;19.70;99.90;;;;;;4972525;28;20203;-90
2023/04/27 01:13:40;;;;;;;4.40;0.93;;;19.60;99.90;;;;;;4959931;28;20210;-88
2023/04/27 01:16:12;;;;;;;3.47;0.93;;;19.50;99.90;;;;;;4971897;28;20191;-90
2023/04/27 01:18:45;;;;;;;1.17;0.73;;;19.40;99.90;;;;;;4956509;28;20219;-90
2023/04/27 01:21:17;;;;;;;1.03;0.87;;;19.30;99.90;;;;;;4972433;28;20202;-89
2023/04/27 01:23:50;;;;;;;2.60;0.70;;;19.30;99.90;;;;;;4973095;28;20203;-89
2023/04/27 01:26:21;;;;;;;2.07;0.80;;;19.40;99.90;;;;;;4972470;28;20290;-88
2023/04/27 01:28:53;;;;;;;0.67;0.50;;;19.50;99.90;;;;;;4960591;28;20261;-90
2023/04/27 01:31:25;;;;;;;0.90;0.60;;;19.50;99.90;;;;;;4972945;28;20206;-90
2023/04/27 01:33:56;;;;;;;0.60;0.40;;;19.50;99.90;;;;;;4973722;28;20209;-89
2023/04/27 01:36:28;;;;;;;0.70;0.50;;;19.60;99.90;;;;;;4969470;28;20741;-90
2023/04/27 01:39:02;;;;;;;0.93;0.70;;;19.90;99.90;;;;;;4968723;28;20234;-90
2023/04/27 01:41:33;;;;;;;0.80;0.60;;;19.90;99.90;;;;;;4979809;28;20210;-90
2023/04/27 01:44:05;;;;;;;2.03;0.70;;;19.90;99.90;;;;;;4989246;28;20199;-90
2023/04/27 01:46:37;;;;;;;1.60;0.87;;;19.80;99.90;;;;;;4977162;28;20248;-89
2023/04/27 01:49:08;;;;;;;3.10;0.80;;;19.70;99.90;;;;;;4974451;28;20231;-88
2023/04/27 01:51:40;;;;;;;0.80;0.60;;;19.70;99.90;;;;;;4976535;28;20246;-89
2023/04/27 01:54:15;;;;;;;0.93;0.67;;;19.70;99.90;;;;;;4976973;28;20238;-90
2023/04/27 01:56:46;;;;;;;1.33;0.53;;;19.40;99.90;;;;;;4976680;28;20262;-89
2023/04/27 01:59:18;;;;;;;2.37;0.93;;;18.90;99.90;;;;;;4984221;28;20218;-89
2023/04/27 02:01:50;;;;;;;1.97;0.70;;;18.70;99.90;;;;;;4995493;28;20206;-90
2023/04/27 02:04:21;;;;;;;1.73;0.70;;;18.50;99.90;;;;;;4995889;28;20210;-90
2023/04/27 02:06:52;;;;;;;1.27;0.83;;;18.10;99.90;;;;;;4996329;28;20213;-90
2023/04/27 02:09:25;;;;;;;2.17;0.90;;;17.90;99.90;;;;;;4977450;28;20314;-90
2023/04/27 02:11:56;;;;;;;1.13;0.87;;;17.70;99.90;;;;;;4966666;28;20207;-90
2023/04/27 02:14:28;;;;;;;1.60;0.90;;;17.60;99.90;;;;;;4969010;28;20206;-88
2023/04/27 02:16:59;;;;;;;4.17;0.87;;;17.50;99.90;;;;;;4971741;28;20619;-89
2023/04/27 02:19:30;;;;;;;1.40;1.00;;;17.30;99.90;;;;;;4971612;28;20217;-90
2023/04/27 02:22:02;;;;;;;1.67;0.83;;;17.30;99.90;;;;;;4976820;28;20214;-91
2023/04/27 02:24:37;;;;;;;1.27;0.70;;;17.20;99.90;;;;;;4972840;28;20937;-88
2023/04/27 02:27:09;;;;;;;2.47;0.60;;;17.10;99.90;;;;;;4975219;28;20617;-90
2023/04/27 02:29:41;;;;;;;1.87;0.70;;;17.00;99.90;;;;;;4965195;28;20258;-89
2023/04/27 02:32:12;;;;;;;1.70;0.70;;;16.90;99.90;;;;;;4975573;28;20207;-90
2023/04/27 02:34:44;;;;;;;1.13;0.60;;;16.80;99.90;;;;;;4976433;28;20222;-90
2023/04/27 02:37:16;;;;;;;1.73;0.70;;;16.70;99.90;;;;;;4976855;28;20674;-89
2023/04/27 02:39:49;;;;;;;1.20;0.87;;;16.60;99.90;;;;;;4975414;28;20235;-89
2023/04/27 02:42:20;;;;;;;4.10;0.70;;;16.50;99.90;;;;;;4961424;28;20207;-89
2023/04/27 02:44:52;;;;;;;1.43;0.87;;;16.50;99.90;;;;;;4956044;28;20204;-88
2023/04/27 02:47:23;;;;;;;0.93;0.80;;;16.40;99.90;;;;;;4964946;28;20214;-89
2023/04/27 02:49:54;;;;;;;3.53;1.30;;;16.30;99.90;;;;;;4963444;28;20243;-89
2023/04/27 02:52:26;;;;;;;3.40;0.97;;;16.20;99.90;;;;;;4957485;29;20734;-90
2023/04/27 02:54:59;;;;;;;1.77;1.00;;;16.10;99.90;;;;;;4958000;28;20678;-89
2023/04/27 02:57:30;;;;;;;1.27;0.87;;;16.10;99.90;;;;;;4977440;28;20192;-92
2023/04/27 03:00:05;;;;;;;1.87;0.70;;;16.00;99.90;;;;;;4991990;28;20206;-91
2023/04/27 03:02:37;;;;;;;2.37;1.00;;;15.90;99.90;;;;;;4989436;28;20203;-90
2023/04/27 03:05:09;;;;;;;2.80;0.90;;;15.80;99.90;;;;;;4976383;28;20302;-89
2023/04/27 03:07:40;;;;;;;1.97;0.80;;;15.70;99.90;;;;;;4975381;28;20207;-88
2023/04/27 03:10:14;;;;;;;1.33;0.80;;;15.60;99.90;;;;;;4971571;28;20234;-89
2023/04/27 03:12:45;;;;;;;2.50;0.90;;;15.50;99.90;;;;;;4968080;28;20221;-88
2023/04/27 03:15:16;;;;;;;1.00;0.80;;;15.50;99.90;;;;;;4971842;28;20215;-89
2023/04/27 03:17:48;;;;;;;1.33;0.77;;;15.30;99.90;;;;;;4973218;28;20207;-88
2023/04/27 03:20:19;;;;;;;1.67;0.70;;;15.30;99.90;;;;;;4973269;28;20218;-87
2023/04/27 03:22:51;;;;;;;3.13;1.00;;;15.20;99.90;;;;;;4965824;28;20251;-88
2023/04/27 03:25:24;;;;;;;0.93;0.67;;;15.10;99.90;;;;;;4974187;28;20351;-88
2023/04/27 03:27:56;;;;;;;1.47;0.70;;;15.10;99.90;;;;;;4972539;28;20265;-89
2023/04/27 03:30:27;;;;;;;2.20;1.10;;;15.00;99.90;;;;;;4973820;28;20769;-90
2023/04/27 03:32:59;;;;;;;1.37;1.00;;;14.90;99.90;;;;;;4974083;28;20294;-90
2023/04/27 03:35:31;;;;;;;3.27;1.23;;;14.80;99.90;;;;;;4968209;28;20212;-89
2023/04/27 03:38:03;;;;;;;1.97;0.77;;;14.80;99.90;;;;;;4965053;28;20203;-89
2023/04/27 03:40:36;;;;;;;1.00;0.60;;;14.70;99.90;;;;;;4974364;28;20211;-89
2023/04/27 03:43:07;;;;;;;2.00;0.70;;;14.60;99.90;;;;;;4974230;28;20211;-91
2023/04/27 03:45:38;;;;;;;1.40;0.90;;;14.50;99.90;;;;;;4975277;28;20211;-90
2023/04/27 03:48:09;;;;;;;1.40;0.90;;;14.40;99.90;;;;;;4972756;28;20953;-88
2023/04/27 03:50:41;;;;;;;3.17;0.70;;;14.40;99.90;;;;;;4973398;28;20270;-90
2023/04/27 03:53:14;;;;;;;3.00;1.07;;;14.30;99.90;;;;;;4972002;28;20206;-89
2023/04/27 03:55:47;;;;;;;3.67;1.00;;;14.30;99.90;;;;;;4974055;28;20234;-88
2023/04/27 03:58:18;;;;;;;1.17;0.87;;;14.20;99.90;;;;;;4969191;28;20733;-88
2023/04/27 04:00:51;;;;;;;2.13;1.00;;;14.10;99.90;;;;;;4964544;28;20207;-88
2023/04/27 04:03:22;;;;;;;2.70;0.70;;;14.00;99.90;;;;;;4963364;28;20739;-88
2023/04/27 04:05:54;;;;;;;7.93;1.53;;;14.00;99.90;;;;;;4965000;28;20207;-89
2023/04/27 04:08:26;;;;;;;2.30;1.00;;;13.90;99.90;;;;;;4971931;28;20211;-88
2023/04/27 04:11:00;;;;;;;3.47;1.10;;;13.90;99.90;;;;;;4973027;28;20322;-89
2023/04/27 04:13:32;;;;;;;1.63;0.90;;;13.90;99.90;;;;;;4969566;28;20222;-90
2023/04/27 04:16:05;;;;;;;3.23;0.80;;;13.80;99.90;;;;;;4971611;28;20207;-89
2023/04/27 04:18:36;;;;;;;5.13;0.80;;;13.80;99.90;;;;;;4970362;28;20258;-88
2023/04/27 04:21:07;;;;;;;1.30;0.87;;;13.70;99.90;;;;;;4972507;28;20195;-88
2023/04/27 04:23:39;;;;;;;2.20;0.90;;;13.70;99.90;;;;;;4953718;28;20212;-89
2023/04/27 04:26:13;;;;;;;1.27;1.00;;;13.60;99.90;;;;;;4962133;28;20215;-88
2023/04/27 04:28:45;;;;;;;2.23;1.07;;;13.60;99.90;;;;;;4962178;28;20617;-88
2023/04/27 04:31:17;;;;;;;3.67;1.03;;;13.60;99.90;;;;;;4965649;28;20266;-88
2023/04/27 04:33:48;;;;;;;1.47;0.70;;;13.50;99.90;;;;;;4973629;28;20207;-88
2023/04/27 04:36:19;;;;;;;1.63;0.90;;;13.40;99.90;;;;;;4971096;28;20199;-88
2023/04/27 04:38:50;;;;;;;3.23;1.00;;;13.40;99.90;;;;;;4966175;28;20211;-88
2023/04/27 04:41:24;;;;;;;2.40;0.70;;;13.30;99.90;;;;;;4962609;28;20206;-88
2023/04/27 04:43:56;;;;;;;2.70;0.70;;;13.10;99.90;;;;;;4961407;28;20640;-89
2023/04/27 04:46:29;;;;;;;2.00;0.90;;;13.00;99.90;;;;;;4966643;28;20277;-89
2023/04/27 04:49:01;;;;;;;2.30;0.87;;;13.00;99.90;;;;;;4967429;28;20709;-89
2023/04/27 04:51:32;;;;;;;1.97;0.83;;;12.90;99.90;;;;;;4954001;29;20725;-90
2023/04/27 04:54:04;;;;;;;1.73;0.93;;;12.90;99.90;;;;;;4953064;29;20215;-89
2023/04/27 04:56:38;;;;;;;2.17;0.83;;;12.80;99.90;;;;;;4954735;28;20212;-89
2023/04/27 04:59:10;;;;;;;3.70;1.10;;;12.80;99.90;;;;;;4954967;28;20207;-89
2023/04/27 05:01:42;;;;;;;2.87;0.90;;;12.80;99.90;;;;;;4973032;28;20211;-89
2023/04/27 05:04:14;;;;;;;1.87;0.90;;;12.70;99.90;;;;;;4988002;28;20194;-90
2023/04/27 05:06:46;;;;;;;3.33;1.30;;;12.70;99.90;;;;;;4976622;28;20286;-89
2023/04/27 05:09:17;;;;;;;2.00;1.27;;;12.70;99.90;;;;;;4969065;28;20217;-89
2023/04/27 05:11:50;;;;;;;1.93;0.90;;;12.70;99.90;;;;;;4964804;28;20672;-89
2023/04/27 05:14:21;;;;;;;5.23;1.20;;;12.70;99.90;;;;;;4984768;28;20210;-88
2023/04/27 05:16:53;;;;;;;1.83;1.13;;;12.60;99.90;;;;;;4980163;28;20214;-89
2023/04/27 05:19:24;;;;;;;1.90;1.00;;;12.60;99.90;;;;;;4977344;28;20738;-88
2023/04/27 05:21:56;;;;;;;1.70;1.00;;;12.50;99.90;;;;;;4972135;28;20221;-89
2023/04/27 05:24:28;;;;;;;1.73;0.90;;;12.50;99.90;;;;;;4963808;28;20258;-88
2023/04/27 05:27:00;;;;;;;2.03;1.13;;;12.40;99.90;;;;;;4977407;28;20214;-89
2023/04/27 05:29:32;;;;;;;2.80;1.13;;;12.40;99.90;;;;;;4976296;28;20246;-88
2023/04/27 05:32:03;;;;;;;3.30;1.00;;;12.30;99.90;;;;;;4977098;28;20207;-88
2023/04/27 05:34:35;;;;;;;2.47;0.97;;;12.30;99.90;;;;;;4976420;28;20416;-89
2023/04/27 05:37:07;;;;;;;1.67;1.10;;;12.40;99.90;;;;;;4976521;28;20625;-89
2023/04/27 05:39:38;;;;;;;1.07;0.90;;;12.30;99.90;;;;;;4975779;28;20214;-89
2023/04/27 05:42:12;;;;;;;2.97;0.97;;;12.20;99.90;;;;;;4977012;28;20979;-90
2023/04/27 05:44:43;;;;;;;2.37;1.10;;;12.10;99.90;;;;;;4976766;28;20641;-89
2023/04/27 05:47:15;;;;;;;3.13;0.90;;;12.10;99.90;;;;;;4977102;28;20270;-90
2023/04/27 05:49:51;;;;;;;3.40;1.00;;;12.10;99.90;;;;;;4975889;28;20211;-89
2023/04/27 05:52:28;;;;;;;3.60;1.10;;;12.00;99.90;;;;;;4976521;28;20218;-88
2023/04/27 05:55:00;;;;;;;3.53;1.07;;;12.00;99.90;;;;;;4976671;28;20342;-90
2023/04/27 05:57:34;;;;;;;2.50;0.93;;;12.00;99.90;;;;;;4975686;28;20235;-89
2023/04/27 06:00:09;;;;;;;4.20;1.30;;;11.90;99.90;;;;;;4984771;28;20207;-89
2023/04/27 06:02:41;;;;;;;4.27;1.10;;;11.90;99.90;;;;;;4979687;28;20265;-88
2023/04/27 06:05:12;;;;;;;3.83;1.40;;;11.80;99.90;;;;;;4975406;28;20281;-89
2023/04/27 06:07:44;;;;;;;3.70;1.13;;;11.80;99.90;;;;;;4975389;28;20615;-90
2023/04/27 06:10:15;;;;;;;6.20;1.57;;;11.80;99.90;;;;;;4975900;28;20207;-90
2023/04/27 06:12:48;;;;;;;4.63;1.30;;;11.70;99.90;;;;;;4971023;28;20220;-89
2023/04/27 06:15:20;;;;;;;4.27;1.03;;;11.60;99.90;;;;;;4971974;28;20661;-87
2023/04/27 06:17:52;;;;;;;5.00;1.17;;;11.60;99.90;;;;;;4976196;28;20211;-88
2023/04/27 06:20:23;;;;;;;4.93;1.40;;;11.60;99.90;;;;;;4969494;28;20223;-88
2023/04/27 06:22:55;;;;;;;4.00;1.20;;;11.50;99.90;;;;;;4974286;28;20936;-90
2023/04/27 06:25:27;;;;;;;5.03;1.17;;;11.50;99.90;;;;;;4984230;28;20270;-91
2023/04/27 06:28:00;;;;;;;4.90;1.13;;;11.40;99.90;;;;;;4973973;28;20242;-90
2023/04/27 06:30:32;;;;;;;8.73;1.50;;;11.30;99.90;;;;;;4969940;28;20226;-89
2023/04/27 06:33:03;;;;;;;5.37;1.17;;;11.30;99.90;;;;;;4964912;28;20231;-89
2023/04/27 06:35:35;;;;;;;4.23;1.20;;;11.30;99.90;;;;;;4970415;28;20199;-88
2023/04/27 06:38:06;;;;;;;4.87;1.50;;;11.20;99.90;;;;;;4968289;28;20292;-89
2023/04/27 06:40:39;;;;;;;5.77;1.43;;;11.20;99.90;;;;;;4962200;28;20248;-90
2023/04/27 06:43:12;;;;;;;4.90;1.47;;;11.10;99.90;;;;;;4975551;28;20207;-89
2023/04/27 06:45:44;;;;;;;6.93;1.73;;;11.10;99.90;;;;;;5003100;28;20271;-88
2023/04/27 06:48:15;;;;;;;3.20;1.10;;;11.10;99.90;;;;;;4967707;28;20215;-89
2023/04/27 06:50:47;;;;;;;3.67;1.43;;;11.00;99.90;;;;;;4967171;28;20220;-89
2023/04/27 06:53:18;;;;;;;5.33;1.40;;;10.90;99.90;;;;;;4964026;28;20212;-89
2023/04/27 06:55:49;;;;;;;2.07;1.20;;;10.90;99.90;;;;;;4969826;28;20188;-89
2023/04/27 06:58:24;;;;;;;6.37;1.50;;;10.80;99.90;;;;;;4972921;28;20203;-89
2023/04/27 07:00:55;;;;;;;5.27;1.10;;;10.80;99.90;;;;;;4958458;28;20614;-89
2023/04/27 07:03:27;;;;;;;3.93;1.27;;;10.70;99.90;;;;;;4977332;28;20284;-88
2023/04/27 07:05:59;;;;;;;6.53;1.23;;;10.70;99.90;;;;;;4972275;28;20225;-88
2023/04/27 07:08:31;;;;;;;6.17;1.50;;;10.60;99.90;;;;;;4964653;28;20203;-89
2023/04/27 07:11:02;;;;;;;4.30;1.20;;;10.60;99.90;;;;;;4971373;28;20230;-89
2023/04/27 07:13:36;;;;;;;5.03;1.10;;;10.60;99.90;;;;;;4983120;28;20203;-88
2023/04/27 07:16:08;;;;;;;6.90;1.30;;;10.60;99.90;;;;;;4990927;28;20214;-90
2023/04/27 07:18:40;;;;;;;2.27;1.03;;;10.70;99.90;;;;;;4981228;28;20718;-89
2023/04/27 07:21:12;;;;;;;5.20;1.30;;;10.70;99.90;;;;;;4970071;28;20221;-88
2023/04/27 07:23:45;;;;;;;7.97;1.57;;;10.80;99.90;;;;;;4970182;28;20208;-89
2023/04/27 07:26:17;;;;;;;3.53;1.20;;;10.80;99.90;;;;;;4973169;28;20203;-90
2023/04/27 07:28:51;;;;;;;6.80;1.80;;;10.90;99.90;;;;;;4968210;28;20196;-88
2023/04/27 07:31:23;;;;;;;4.23;1.20;;;10.90;99.90;;;;;;4963824;28;20231;-89
2023/04/27 07:33:54;;;;;;;3.97;1.40;;;11.00;99.90;;;;;;4969980;28;20223;-91
2023/04/27 07:36:26;;;;;;;7.10;1.90;;;11.00;99.90;;;;;;4966463;28;20205;-89
2023/04/27 07:38:58;;;;;;;4.07;1.63;;;11.00;99.90;;;;;;4994141;28;20290;-88
2023/04/27 07:41:30;;;;;;;5.87;1.37;;;11.00;99.90;;;;;;4957838;28;20208;-90
2023/04/27 07:44:03;;;;;;;7.07;1.07;;;11.00;99.90;;;;;;4965998;28;20210;-89
2023/04/27 07:46:35;;;;;;;6.10;1.77;;;11.00;99.90;;;;;;4963358;28;20255;-91
2023/04/27 07:49:06;;;;;;;6.87;1.47;;;11.10;99.90;;;;;;4971349;28;20208;-90
2023/04/27 07:51:41;;;;;;;3.43;1.33;;;11.00;99.90;;;;;;4972785;28;20223;-90
2023/04/27 07:54:13;;;;;;;5.73;1.37;;;11.00;99.90;;;;;;4969209;28;20677;-90
2023/04/27 07:56:45;;;;;;;6.40;1.63;;;11.10;99.90;;;;;;4968354;28;20211;-88
2023/04/27 07:59:18;;;;;;;5.77;1.40;;;11.10;99.90;;;;;;4959303;28;20258;-90
2023/04/27 08:01:50;;;;;;;4.97;1.37;;;11.10;99.90;;;;;;4975049;28;20207;-90
2023/04/27 08:04:21;;;;;;;5.00;1.47;;;11.10;99.90;;;;;;4975428;28;20214;-89
2023/04/27 08:06:53;;;;;;;5.63;1.43;;;11.10;99.90;;;;;;4972767;28;20199;-89
2023/04/27 08:09:25;;;;;;;6.47;1.50;;;11.10;99.90;;;;;;4971974;28;20203;-89
2023/04/27 08:11:58;;;;;;;4.27;1.60;;;11.10;99.90;;;;;;4973478;28;20448;-88
2023/04/27 08:14:31;;;;;;;5.20;1.13;;;11.10;99.90;;;;;;4973421;28;20339;-89
2023/04/27 08:17:03;;;;;;;4.10;1.30;;;11.10;99.90;;;;;;4973541;28;20254;-90
2023/04/27 08:19:35;;;;;;;3.63;1.20;;;11.10;99.90;;;;;;4971923;28;20616;-90
2023/04/27 08:22:06;;;;;;;4.13;1.50;;;11.10;99.90;;;;;;4973067;28;20215;-89
2023/04/27 08:24:38;;;;;;;4.97;1.30;;;11.10;99.90;;;;;;4966027;28;20273;-89
2023/04/27 08:27:10;;;;;;;4.70;1.33;;;11.10;99.90;;;;;;4974202;28;20207;-89
2023/04/27 08:29:49;;;;;;;5.40;1.50;;;11.10;99.90;;;;;;4973028;28;20210;-90
2023/04/27 08:32:20;;;;;;;4.37;1.60;;;11.10;99.90;;;;;;4974275;28;20270;-90
2023/04/27 08:34:51;;;;;;;4.77;1.40;;;11.10;99.90;;;;;;4973814;28;20211;-90
2023/04/27 08:37:22;;;;;;;4.70;1.57;;;11.10;99.90;;;;;;4973692;28;20295;-90
2023/04/27 08:39:53;;;;;;;7.47;1.50;;;11.10;99.90;;;;;;4973154;28;20207;-89
2023/04/27 08:42:25;;;;;;;5.07;1.43;;;11.10;99.90;;;;;;4973794;28;20218;-89
2023/04/27 08:44:58;;;;;;;4.90;1.37;;;11.00;99.90;;;;;;4971765;28;20211;-89
2023/04/27 08:47:30;;;;;;;5.07;1.40;;;11.10;99.90;;;;;;4957644;28;20215;-90
2023/04/27 08:50:13;;;;;;;3.37;1.47;;;11.00;99.90;;;;;;4975222;28;20619;-88
2023/04/27 08:52:46;;;;;;;5.63;1.50;;;11.00;99.90;;;;;;4973091;28;20277;-90
2023/04/27 08:55:17;;;;;;;5.97;1.47;;;11.00;99.90;;;;;;4972983;28;20211;-89
2023/04/27 08:58:00;;;;;;;3.90;1.10;;;11.00;99.90;;;;;;4973118;28;20269;-89
2023/04/27 09:00:41;;;;;;;3.43;1.30;;;10.90;99.90;;;;;;4973035;28;20216;-90
2023/04/27 09:03:23;;;;;;;7.07;1.40;;;10.90;99.90;;;;;;4973820;28;20218;-90
2023/04/27 09:05:55;;;;;;;2.63;1.20;;;10.80;99.90;;;;;;4973151;28;20215;-90
2023/04/27 09:08:52;;;;;;;2.67;1.30;;;10.80;99.90;;;;;;4972728;28;20207;-90
2023/04/27 09:11:31;;;;;;;3.70;1.50;;;10.80;99.90;;;;;;4976431;28;20218;-89
2023/04/27 09:14:04;;;;;;;4.77;1.10;;;10.90;99.90;;;;;;4955594;29;20239;-90
2023/04/27 09:16:37;;;;;;;2.60;1.30;;;10.90;99.90;;;;;;4955326;28;20212;-89
2023/04/27 09:19:09;;;;;;;3.50;1.30;;;10.80;99.90;;;;;;4956645;28;20251;-89
2023/04/27 09:21:41;;;;;;;2.27;1.20;;;10.80;99.90;;;;;;4976747;28;20214;-90
2023/04/27 09:24:16;;;;;;;5.10;1.13;;;10.80;99.90;;;;;;4989435;28;20198;-91
2023/04/27 09:26:51;;;;;;;4.20;1.10;;;10.80;99.90;;;;;;4986932;28;20205;-89
2023/04/27 09:29:33;;;;;;;5.60;1.30;;;10.90;99.90;;;;;;4995295;28;20238;-90
2023/04/27 09:32:17;;;;;;;5.23;1.60;;;10.80;99.90;;;;;;4993969;28;20234;-90
2023/04/27 09:34:48;;;;;;;3.70;1.20;;;10.90;99.90;;;;;;4982992;28;20269;-89
2023/04/27 09:37:20;;;;;;;1.70;1.30;;;10.90;99.90;;;;;;4966452;28;20216;-90
2023/04/27 09:39:52;;;;;;;3.37;1.33;;;10.80;99.90;;;;;;4953922;28;20237;-90
2023/04/27 09:42:23;;;;;;;4.63;1.43;;;10.80;99.90;;;;;;4970972;28;20690;-89
2023/04/27 09:44:55;;;;;;;6.87;1.40;;;10.80;99.90;;;;;;4972635;28;20258;-90
2023/04/27 09:47:29;;;;;;;8.70;1.60;;;10.80;99.90;;;;;;4972910;28;20250;-91
2023/04/27 09:50:03;;;;;;;5.60;1.70;;;10.80;99.90;;;;;;4972023;28;20309;-89
2023/04/27 09:52:35;;;;;;;2.30;1.27;;;10.80;99.90;;;;;;4972019;28;20317;-90
2023/04/27 09:55:10;;;;;;;1.80;1.00;;;10.70;99.90;;;;;;4956978;28;20266;-89
2023/04/27 09:57:50;;;;;;;5.90;1.33;;;10.60;99.90;;;;;;4956219;28;20207;-89
2023/04/27 10:00:31;;;;;;;3.57;1.40;;;10.70;99.90;;;;;;4975789;28;20214;-90
2023/04/27 10:03:17;;;;;;;3.93;1.20;;;10.70;99.90;;;;;;4976612;28;20241;-90
2023/04/27 10:06:32;;;;;;;5.63;1.30;;;10.60;99.90;;;;;;4976090;28;20211;-89
2023/04/27 10:09:06;;;;;;;3.23;1.17;;;10.60;99.90;;;;;;4959420;28;20311;-90
2023/04/27 10:11:42;;;;;;;3.23;1.30;;;10.70;99.90;;;;;;4977071;28;20195;-88
2023/04/27 10:14:18;;;;;;;2.53;1.30;;;10.70;99.90;;;;;;4976722;28;20231;-88
2023/04/27 10:16:53;;;;;;;6.30;1.40;;;10.70;99.90;;;;;;4976104;28;20202;-90
2023/04/27 10:19:27;;;;;;;4.70;1.40;;;10.70;99.90;;;;;;4975450;28;20210;-89
2023/04/27 10:22:02;;;;;;;4.43;1.27;;;10.60;99.90;;;;;;4975284;28;20207;-91
2023/04/27 10:24:37;;;;;;;4.17;1.50;;;10.60;99.90;;;;;;4975917;28;20283;-91
2023/04/27 10:27:11;;;;;;;1.47;1.10;;;10.70;99.90;;;;;;4976481;28;20202;-89
2023/04/27 10:29:43;;;;;;;3.73;1.30;;;10.80;99.90;;;;;;4975579;28;20741;-89
2023/04/27 10:32:19;;;;;;;4.93;1.50;;;10.70;99.90;;;;;;4976216;28;20209;-89
2023/04/27 10:35:05;;;;;;;4.60;1.37;;;10.70;99.90;;;;;;4975327;28;20229;-89
2023/04/27 10:37:44;;;;;;;3.10;1.20;;;10.70;99.90;;;;;;4974621;28;20211;-89
2023/04/27 10:40:18;;;;;;;4.33;1.40;;;10.80;99.90;;;;;;4975598;28;20670;-89
2023/04/27 10:42:50;;;;;;;2.03;1.13;;;10.80;99.90;;;;;;4975948;28;20250;-89
2023/04/27 10:45:29;;;;;;;3.13;1.10;;;10.80;99.90;;;;;;4976203;28;20258;-90
2023/04/27 10:48:03;;;;;;;4.03;1.50;;;10.70;99.90;;;;;;4975586;28;20215;-89
2023/04/27 10:50:36;;;;;;;3.07;1.30;;;10.70;99.90;;;;;;4975504;28;20712;-89
2023/04/27 10:53:09;;;;;;;3.60;1.27;;;10.70;99.90;;;;;;4975251;28;20231;-90
2023/04/27 10:55:41;;;;;;;4.50;1.30;;;10.70;99.90;;;;;;4975581;28;20286;-89
2023/04/27 10:58:12;;;;;;;3.57;1.10;;;10.60;99.90;;;;;;4964023;28;20226;-89
2023/04/27 11:00:44;;;;;;;6.17;1.67;;;10.70;99.90;;;;;;4962804;28;20203;-89
2023/04/27 11:03:18;;;;;;;4.70;1.60;;;10.80;99.90;;;;;;4961391;28;20223;-90
2023/04/27 11:06:00;;;;;;;8.37;1.50;;;10.80;99.90;;;;;;4960471;28;20254;-90
2023/04/27 11:08:35;;;;;;;7.43;1.33;;;10.70;99.90;;;;;;4975116;28;20826;-90
2023/04/27 11:11:08;;;;;;;5.70;1.50;;;10.70;99.90;;;;;;4975389;28;20286;-89
2023/04/27 11:13:39;;;;;;;3.47;1.53;;;10.60;99.90;;;;;;4975337;28;20238;-90
2023/04/27 11:16:12;;;;;;;4.20;1.37;;;10.60;99.90;;;;;;4975162;28;20210;-90
2023/04/27 11:18:43;;;;;;;3.50;1.50;;;10.60;99.90;;;;;;4974921;28;20218;-91
2023/04/27 11:21:19;;;;;;;4.13;1.40;;;10.50;99.90;;;;;;4975290;28;20670;-90
2023/04/27 11:23:50;;;;;;;3.10;1.37;;;10.60;99.90;;;;;;4975359;28;20206;-90
2023/04/27 11:26:25;;;;;;;5.23;1.60;;;10.60;99.90;;;;;;4975408;28;20218;-91
2023/04/27 11:29:03;;;;;;;1.93;1.20;;;10.60;99.90;;;;;;4975201;28;20217;-90
2023/04/27 11:31:42;;;;;;;2.27;1.13;;;10.60;99.90;;;;;;4976008;28;20293;-91
2023/04/27 11:34:17;;;;;;;5.80;1.87;;;10.60;99.90;;;;;;4995807;28;20234;-90
2023/04/27 11:37:02;;;;;;;2.27;1.07;;;10.60;99.90;;;;;;4995561;28;20205;-89
2023/04/27 11:39:47;;;;;;;2.13;1.20;;;10.50;99.90;;;;;;4980914;28;20289;-90
2023/04/27 11:42:21;;;;;;;4.10;1.20;;;10.50;99.90;;;;;;4975251;28;20254;-89
2023/04/27 11:44:56;;;;;;;4.80;1.57;;;10.60;99.90;;;;;;4974778;28;20214;-90
2023/04/27 11:47:30;;;;;;;3.93;1.40;;;10.50;99.90;;;;;;4971200;28;20215;-95
2023/04/27 11:50:03;;;;;;;4.03;1.37;;;10.50;99.90;;;;;;4955141;28;20212;-90
2023/04/27 11:52:38;;;;;;;2.00;1.00;;;10.50;99.90;;;;;;4958153;28;20291;-90
2023/04/27 11:55:14;;;;;;;2.73;1.30;;;10.40;99.90;;;;;;4974118;28;20273;-90
2023/04/27 11:57:45;;;;;;;3.70;1.23;;;10.40;99.90;;;;;;4972946;28;20207;-90
2023/04/27 12:00:19;;;;;;;3.93;1.20;;;10.40;99.90;;;;;;4973601;28;20666;-89
2023/04/27 12:02:50;;;;;;;2.60;1.13;;;10.40;99.90;;;;;;4974261;28;20203;-90
2023/04/27 12:05:22;;;;;;;3.13;1.10;;;10.40;99.90;;;;;;4973677;28;20277;-89
2023/04/27 12:07:57;;;;;;;4.13;1.57;;;10.40;99.90;;;;;;4972538;28;20203;-89
2023/04/27 12:10:28;;;;;;;3.90;1.30;;;10.30;99.90;;;;;;4973758;28;20669;-90
2023/04/27 12:12:59;;;;;;;4.47;1.37;;;10.30;99.90;;;;;;4973927;28;20214;-90
2023/04/27 12:15:30;;;;;;;3.50;1.33;;;10.20;99.90;;;;;;4973788;28;20637;-89
2023/04/27 12:18:01;;;;;;;3.37;1.73;;;10.20;99.90;;;;;;4972918;28;20218;-90
2023/04/27 12:20:33;;;;;;;3.07;1.10;;;10.10;99.90;;;;;;4973845;28;20210;-90
2023/04/27 12:23:06;;;;;;;3.00;1.20;;;10.10;99.90;;;;;;4973652;28;20215;-90
2023/04/27 12:25:39;;;;;;;2.40;1.37;;;10.00;99.90;;;;;;4974717;28;20615;-90
2023/04/27 12:28:11;;;;;;;3.47;1.37;;;10.00;99.90;;;;;;4972959;28;20211;-90
2023/04/27 12:30:42;;;;;;;3.33;1.30;;;10.00;99.90;;;;;;4972157;28;20206;-90
2023/04/27 12:33:14;;;;;;;2.37;1.20;;;9.90;99.90;;;;;;4974291;28;20199;-88
2023/04/27 12:35:45;;;;;;;3.83;1.43;;;9.80;99.90;;;;;;4973989;28;20297;-90
2023/04/27 12:38:18;;;;;;;2.63;1.27;;;9.70;99.90;;;;;;4972490;28;20214;-90
2023/04/27 12:40:50;;;;;;;2.50;1.20;;;9.80;99.90;;;;;;4973202;28;20206;-89
2023/04/27 12:43:21;;;;;;;6.17;1.57;;;9.80;99.90;;;;;;4972377;28;20218;-90
2023/04/27 12:45:53;;;;;;;4.63;1.40;;;9.80;99.90;;;;;;4973845;28;20211;-88
2023/04/27 12:48:25;;;;;;;2.93;1.10;;;9.70;99.90;;;;;;4972686;28;20575;-88
2023/04/27 12:50:57;;;;;;;2.80;1.37;;;9.70;99.90;;;;;;4974267;28;20195;-89
2023/04/27 12:53:29;;;;;;;1.73;1.00;;;9.60;99.90;;;;;;4973292;28;20203;-89
2023/04/27 12:56:03;;;;;;;3.00;1.30;;;9.60;99.90;;;;;;4973241;28;20644;-90
2023/04/27 12:58:34;;;;;;;3.33;1.40;;;9.60;99.90;;;;;;4970659;28;20281;-90
2023/04/27 13:01:11;;;;;;;4.37;1.30;;;9.60;99.90;;;;;;4973655;28;20246;-89
2023/04/27 13:03:42;;;;;;;4.47;1.20;;;9.60;99.90;;;;;;4973073;28;20207;-89
2023/04/27 13:06:13;;;;;;;5.57;1.70;;;9.60;99.90;;;;;;4973506;28;20294;-89
2023/04/27 13:08:46;;;;;;;2.97;1.43;;;9.60;99.90;;;;;;4972800;28;20216;-89
2023/04/27 13:11:17;;;;;;;3.80;1.30;;;9.60;99.90;;;;;;4973471;28;20661;-89
2023/04/27 13:13:49;;;;;;;3.73;1.53;;;9.60;99.90;;;;;;4975679;28;20733;-90
2023/04/27 13:16:23;;;;;;;3.93;1.40;;;9.60;99.90;;;;;;4977537;28;20215;-90